Meteorología y climatología de Navarra
Datos de la estación - Meteo Navarra

Estación de Bardenas (El Yugo) GN

Altitud 486 m.


Datos desde el 11/10/2018 hasta el 12/10/2018 en horario solar
Los datos son PROVISIONALES

Anterior Página 1 de 1 Siguiente Descargar: Formato para Excel 2000 o superior   Formato csv   Formato para OpenOffice Calc
Fecha Temperatura Humedad relativa Radiación global Insolación Precipitación Velocidad viento 10 m Velocidad viento 10 m Dirección viento 10 m
ºC % W/m² s l/m² m/s km/h º
11/10/2018 0:00 13.8 90 0.0 0 0.0 6.8 24.3 113
11/10/2018 0:10 13.8 90 0.0 0 0.0 6.8 24.3 113
11/10/2018 0:20 13.7 91 0.0 0 0.0 5.9 21.2 114
11/10/2018 0:30 13.7 91 0.0 0 0.0 6.7 24.2 113
11/10/2018 0:40 13.7 92 0.0 0 0.0 6.6 23.7 115
11/10/2018 0:50 13.8 92 0.0 0 0.0 6.6 23.9 114
11/10/2018 1:00 13.8 92 0.0 0 0.0 6.3 22.8 113
11/10/2018 1:10 13.9 92 0.0 0 0.0 6.4 22.9 114
11/10/2018 1:20 13.8 92 0.0 0 0.0 6.5 23.5 114
11/10/2018 1:30 13.9 91 0.0 0 0.0 6.5 23.5 113
11/10/2018 1:40 13.8 91 0.0 0 0.0 6.4 23.0 109
11/10/2018 1:50 13.7 91 0.0 0 0.0 6.6 23.9 110
11/10/2018 2:00 13.7 91 0.0 0 0.0 6.2 22.3 112
11/10/2018 2:10 13.6 91 0.0 0 0.0 6.6 23.8 115
11/10/2018 2:20 13.5 91 0.0 0 0.0 6.4 23.1 115
11/10/2018 2:30 13.5 92 0.0 0 0.0 6.5 23.5 112
11/10/2018 2:40 13.5 92 0.0 0 0.0 5.9 21.3 115
11/10/2018 2:50 13.5 92 0.0 0 0.0 6.4 22.9 118
11/10/2018 3:00 13.5 92 0.0 0 0.0 6.2 22.1 116
11/10/2018 3:10 13.5 92 0.0 0 0.0 5.9 21.1 116
11/10/2018 3:20 13.3 93 0.0 0 0.0 5.2 18.6 111
11/10/2018 3:30 13.1 93 0.0 0 0.0 5.4 19.6 109
11/10/2018 3:40 13.0 94 0.0 0 0.0 5.5 19.7 110
11/10/2018 3:50 12.9 94 0.0 0 0.0 5.0 18.0 111
11/10/2018 4:00 12.8 95 0.0 0 0.0 4.2 15.2 108
11/10/2018 4:10 12.7 95 0.0 0 0.0 4.1 14.8 107
11/10/2018 4:20 12.7 95 0.0 0 0.0 4.7 17.0 112
11/10/2018 4:30 12.9 95 0.0 0 0.0 5.4 19.3 115
11/10/2018 4:40 13.0 95 0.0 0 0.0 5.7 20.4 117
11/10/2018 4:50 13.1 94 0.0 0 0.0 5.9 21.1 121
11/10/2018 5:00 13.1 94 0.0 0 0.0 5.6 20.2 121
11/10/2018 5:10 12.9 94 0.0 0 0.0 5.2 18.8 118
11/10/2018 5:20 12.8 95 0.0 0 0.0 5.7 20.6 116
11/10/2018 5:30 12.9 95 0.0 0 0.0 6.3 22.6 118
11/10/2018 5:40 13.1 95 0.0 0 0.0 6.5 23.3 117
11/10/2018 5:50 13.1 95 0.0 0 0.0 6.6 23.8 113
11/10/2018 6:00 13.1 95 0.0 0 0.0 7.1 25.6 113
11/10/2018 6:10 13.1 96 0.0 0 0.0 7.5 27.0 117
11/10/2018 6:20 13.1 96 3.6 0 0.0 7.5 26.9 121
11/10/2018 6:30 13.2 96 23.4 104 0.0 7.1 25.7 119
11/10/2018 6:40 13.3 95 43.9 600 0.0 6.2 22.3 118
11/10/2018 6:50 13.5 95 67.8 600 0.0 6.3 22.8 117
11/10/2018 7:00 13.8 94 53.6 208 0.0 6.0 21.6 120
11/10/2018 7:10 14.0 92 40.5 0 0.0 4.9 17.8 126
11/10/2018 7:20 14.2 91 50.9 0 0.0 4.9 17.8 126
11/10/2018 7:30 14.2 91 57.5 0 0.0 4.8 17.2 117
11/10/2018 7:40 14.2 92 64.6 0 0.0 4.7 17.1 120
11/10/2018 7:50 14.2 92 100.3 0 0.0 5.5 19.8 117
11/10/2018 8:00 14.4 91 123.7 0 0.0 5.3 19.0 114
11/10/2018 8:10 14.7 90 147.2 22 0.0 5.8 20.9 112
11/10/2018 8:20 15.0 89 201.9 350 0.0 6.5 23.4 109
11/10/2018 8:30 15.7 87 337.8 600 0.0 6.7 24.3 109
11/10/2018 8:40 17.0 82 389.1 600 0.0 5.5 19.8 107
11/10/2018 8:50 17.1 80 218.1 126 0.0 5.4 19.5 106
11/10/2018 9:00 16.8 82 246.2 276 0.0 5.3 19.2 97
11/10/2018 9:10 17.7 79 480.1 600 0.0 5.5 19.8 93
11/10/2018 9:20 19.2 73 584.5 600 0.0 5.8 21.0 101
11/10/2018 9:30 19.9 70 546.7 568 0.0 5.7 20.4 99
11/10/2018 9:40 20.5 68 648.0 582 0.0 6.0 21.7 106
11/10/2018 9:50 20.6 67 428.7 502 0.0 6.8 24.6 113
11/10/2018 10:00 20.0 68 316.7 174 0.0 5.8 21.0 119
11/10/2018 10:10 19.8 69 199.8 38 0.0 5.8 21.0 135
11/10/2018 10:20 19.2 72 140.0 0 0.0 6.0 21.5 133
11/10/2018 10:30 19.0 73 136.7 0 0.0 5.5 19.7 124
11/10/2018 10:40 19.0 73 114.8 0 0.0 5.3 19.2 128
11/10/2018 10:50 19.5 68 102.8 0 0.0 4.5 16.0 150
11/10/2018 11:00 19.6 65 50.8 0 0.0 5.0 18.0 163
11/10/2018 11:10 19.6 65 68.1 0 0.0 6.0 21.7 162
11/10/2018 11:20 19.6 64 48.8 0 0.0 6.3 22.8 163
11/10/2018 11:30 19.3 70 106.1 0 0.0 5.5 19.6 165
11/10/2018 11:40 18.9 71 97.0 0 0.0 5.1 18.2 167
11/10/2018 11:50 19.6 67 174.1 0 0.0 5.0 18.1 165
11/10/2018 12:00 20.2 64 137.6 0 0.0 5.7 20.5 161
11/10/2018 12:10 20.4 63 159.9 0 0.0 5.3 19.0 159
11/10/2018 12:20 20.5 63 140.0 0 0.0 5.5 19.8 165
11/10/2018 12:30 20.7 62 216.7 0 0.0 5.2 18.7 159
11/10/2018 12:40 21.2 60 244.5 0 0.0 5.1 18.4 154
11/10/2018 12:50 21.3 60 222.6 0 0.0 5.7 20.6 158
11/10/2018 13:00 21.4 60 198.9 0 0.0 5.9 21.3 162
11/10/2018 13:10 21.4 60 221.3 0 0.0 5.5 19.7 162
11/10/2018 13:20 21.9 58 291.5 88 0.0 5.2 18.6 167
11/10/2018 13:30 22.3 57 297.8 116 0.0 4.8 17.3 171
11/10/2018 13:40 23.0 55 331.6 366 0.0 5.2 18.7 173
11/10/2018 13:50 23.1 54 207.5 6 0.0 6.3 22.7 179
11/10/2018 14:00 22.6 55 170.5 0 0.0 8.5 30.6 190
11/10/2018 14:10 22.5 56 457.2 354 0.0 9.1 32.7 194
11/10/2018 14:20 24.1 52 545.7 588 0.0 6.3 22.8 191
11/10/2018 14:30 23.5 53 158.6 0 0.0 6.7 23.9 193
11/10/2018 14:40 22.5 56 181.3 0 0.0 6.2 22.4 183
11/10/2018 14:50 22.7 55 277.5 398 0.0 4.9 17.7 168
11/10/2018 15:00 23.9 52 505.3 600 0.0 6.0 21.7 159
11/10/2018 15:10 25.0 48 449.3 600 0.0 6.6 23.7 160
11/10/2018 15:20 24.4 50 315.2 600 0.0 6.1 22.0 160
11/10/2018 15:30 23.8 52 170.2 82 0.0 5.7 20.5 163
11/10/2018 15:40 23.0 55 104.7 0 0.0 5.6 20.1 165
11/10/2018 15:50 22.5 56 78.0 0 0.0 4.8 17.3 162
11/10/2018 16:00 22.3 57 40.0 0 0.0 4.5 16.3 168
11/10/2018 16:10 22.2 57 54.0 0 0.0 5.3 19.0 168
11/10/2018 16:20 22.2 57 61.7 0 0.0 4.9 17.5 163
11/10/2018 16:30 22.2 57 53.0 0 0.0 3.8 13.8 160
11/10/2018 16:40 22.3 57 58.6 0 0.0 4.1 14.9 155
11/10/2018 16:50 22.2 57 45.4 0 0.0 4.0 14.5 153
11/10/2018 17:00 22.0 58 38.6 62 0.0 4.1 14.9 151
11/10/2018 17:10 21.8 58 26.6 140 0.0 4.5 16.1 153
11/10/2018 17:20 21.5 58 0.0 0 0.0 4.0 14.5 144
11/10/2018 17:30 21.4 59 0.0 0 0.0 3.9 14.1 147
11/10/2018 17:40 21.2 60 0.0 0 0.0 4.4 16.0 140
11/10/2018 17:50 21.2 60 0.0 0 0.0 4.6 16.7 139
11/10/2018 18:00 21.2 59 0.0 0 0.0 3.9 13.9 139
11/10/2018 18:10 21.3 59 0.0 0 0.0 3.9 13.9 136
11/10/2018 18:20 21.2 59 0.0 0 0.0 3.9 14.1 128
11/10/2018 18:30 21.1 61 0.0 0 0.0 3.7 13.4 135
11/10/2018 18:40 21.0 63 0.0 0 0.0 3.8 13.6 134
11/10/2018 18:50 20.9 64 0.0 0 0.0 3.7 13.4 137
11/10/2018 19:00 20.9 64 0.0 0 0.0 3.6 12.9 145
11/10/2018 19:10 20.8 64 0.0 0 0.0 3.5 12.5 139
11/10/2018 19:20 20.7 64 0.0 0 0.0 3.0 10.8 117
11/10/2018 19:30 20.3 67 0.0 0 0.0 2.6 9.3 109
11/10/2018 19:40 19.8 69 0.0 0 0.0 3.6 13.0 110
11/10/2018 19:50 19.5 70 0.0 0 0.0 3.2 11.6 117
11/10/2018 20:00 19.3 71 0.0 0 0.0 2.9 10.5 120
11/10/2018 20:10 19.2 72 0.0 0 0.0 3.0 10.8 120
11/10/2018 20:20 19.0 73 0.0 0 0.0 3.2 11.4 128
11/10/2018 20:30 19.1 71 0.0 0 0.0 3.5 12.6 133
11/10/2018 20:40 19.2 71 0.0 0 0.0 3.5 12.7 121
11/10/2018 20:50 18.5 75 0.0 0 0.0 4.3 15.3 117
11/10/2018 21:00 18.4 75 0.0 0 0.0 4.3 15.6 115
11/10/2018 21:10 18.2 76 0.0 0 0.0 4.4 15.8 114
11/10/2018 21:20 18.1 77 0.0 0 0.0 4.2 15.3 117
11/10/2018 21:30 18.1 76 0.0 0 0.0 4.2 15.1 131
11/10/2018 21:40 18.6 73 0.0 0 0.0 4.3 15.4 121
11/10/2018 21:50 18.2 76 0.0 0 0.0 3.3 12.0 121
11/10/2018 22:00 17.9 77 0.0 0 0.0 3.7 13.4 119
11/10/2018 22:10 17.8 77 0.0 0 0.0 3.3 11.9 120
11/10/2018 22:20 18.3 74 0.0 0 0.0 3.8 13.6 135
11/10/2018 22:30 18.4 74 0.0 0 0.0 2.9 10.4 122
11/10/2018 22:40 17.9 76 0.0 0 0.0 3.7 13.4 131
11/10/2018 22:50 18.3 74 0.0 0 0.0 3.5 12.5 133
11/10/2018 23:00 18.4 74 0.0 0 0.0 3.0 10.7 126
11/10/2018 23:10 17.9 77 0.0 0 0.0 3.7 13.3 127
11/10/2018 23:20 17.9 77 0.0 0 0.0 3.7 13.4 123
11/10/2018 23:30 18.0 76 0.0 0 0.0 3.6 12.9 143
11/10/2018 23:40 17.9 77 0.0 0 0.0 2.8 10.0 132
11/10/2018 23:50 18.0 76 0.0 0 0.0 2.0 7.2 142
Anterior Página 1 de 1 Siguiente

NOTA: Tipo de datos según el color:
   - Valores diarios o 10 minutos correctos
   - Valores diarios calculados a partir de un número de datos 10 minutos menor que 144 y mayor que 120, o de un número de datos semihorarios menor que 48 y mayor que 40 (caso de las estaciones de Riegos de Navarra y del MARM)
   - Valores diez minutos estimados


Contacto        Enlaces        Aviso legal